sensor_id;sensor_type;location;lat;lon;timestamp;P1;durP1;ratioP1;P2;durP2;ratioP2
56429;SDS011;42332;52.136;20.666;2023-09-12T00:01:59;24.58;;;13.98;;
56429;SDS011;42332;52.136;20.666;2023-09-12T00:04:25;29.88;;;13.68;;
56429;SDS011;42332;52.136;20.666;2023-09-12T00:06:50;26.58;;;13.80;;
56429;SDS011;42332;52.136;20.666;2023-09-12T00:09:15;28.00;;;14.73;;
56429;SDS011;42332;52.136;20.666;2023-09-12T00:11:41;24.38;;;13.93;;
56429;SDS011;42332;52.136;20.666;2023-09-12T00:14:08;28.85;;;13.73;;
56429;SDS011;42332;52.136;20.666;2023-09-12T00:16:33;22.65;;;13.18;;
56429;SDS011;42332;52.136;20.666;2023-09-12T00:18:59;26.27;;;14.32;;
56429;SDS011;42332;52.136;20.666;2023-09-12T00:21:24;24.33;;;13.98;;
56429;SDS011;42332;52.136;20.666;2023-09-12T00:23:49;26.80;;;13.07;;
56429;SDS011;42332;52.136;20.666;2023-09-12T00:26:15;26.05;;;13.68;;
56429;SDS011;42332;52.136;20.666;2023-09-12T00:28:40;24.38;;;13.18;;
56429;SDS011;42332;52.136;20.666;2023-09-12T00:31:05;26.52;;;14.23;;
56429;SDS011;42332;52.136;20.666;2023-09-12T00:33:31;21.80;;;13.05;;
56429;SDS011;42332;52.136;20.666;2023-09-12T00:35:56;23.50;;;14.10;;
56429;SDS011;42332;52.136;20.666;2023-09-12T00:38:22;24.80;;;14.38;;
56429;SDS011;42332;52.136;20.666;2023-09-12T00:40:47;28.98;;;14.50;;
56429;SDS011;42332;52.136;20.666;2023-09-12T00:43:13;26.65;;;14.55;;
56429;SDS011;42332;52.136;20.666;2023-09-12T00:45:38;25.95;;;14.27;;
56429;SDS011;42332;52.136;20.666;2023-09-12T00:48:04;26.40;;;13.93;;
56429;SDS011;42332;52.136;20.666;2023-09-12T00:50:29;22.95;;;13.95;;
56429;SDS011;42332;52.136;20.666;2023-09-12T00:52:55;23.52;;;14.13;;
56429;SDS011;42332;52.136;20.666;2023-09-12T00:55:21;25.15;;;14.20;;
56429;SDS011;42332;52.136;20.666;2023-09-12T00:57:46;28.13;;;14.43;;
56429;SDS011;42332;52.136;20.666;2023-09-12T01:00:12;26.25;;;14.15;;
56429;SDS011;42332;52.136;20.666;2023-09-12T01:02:39;25.48;;;14.00;;
56429;SDS011;42332;52.136;20.666;2023-09-12T01:05:06;27.05;;;14.40;;
56429;SDS011;42332;52.136;20.666;2023-09-12T01:07:31;23.35;;;13.98;;
56429;SDS011;42332;52.136;20.666;2023-09-12T01:09:57;25.23;;;13.68;;
56429;SDS011;42332;52.136;20.666;2023-09-12T01:12:22;23.75;;;13.75;;
56429;SDS011;42332;52.136;20.666;2023-09-12T01:14:47;25.77;;;14.88;;
56429;SDS011;42332;52.136;20.666;2023-09-12T01:17:13;25.00;;;13.77;;
56429;SDS011;42332;52.136;20.666;2023-09-12T01:19:38;29.80;;;14.98;;
56429;SDS011;42332;52.136;20.666;2023-09-12T01:27:22;25.98;;;14.55;;
56429;SDS011;42332;52.136;20.666;2023-09-12T01:29:51;26.88;;;13.88;;
56429;SDS011;42332;52.136;20.666;2023-09-12T01:32:20;24.67;;;13.90;;
56429;SDS011;42332;52.136;20.666;2023-09-12T01:34:45;24.27;;;14.13;;
56429;SDS011;42332;52.136;20.666;2023-09-12T01:37:11;25.25;;;14.13;;
56429;SDS011;42332;52.136;20.666;2023-09-12T01:39:36;24.40;;;13.82;;
56429;SDS011;42332;52.136;20.666;2023-09-12T01:42:02;25.02;;;13.73;;
56429;SDS011;42332;52.136;20.666;2023-09-12T01:44:27;24.35;;;14.68;;
56429;SDS011;42332;52.136;20.666;2023-09-12T01:46:54;24.92;;;13.00;;
56429;SDS011;42332;52.136;20.666;2023-09-12T01:49:21;26.83;;;13.90;;
56429;SDS011;42332;52.136;20.666;2023-09-12T01:51:47;27.50;;;13.50;;
56429;SDS011;42332;52.136;20.666;2023-09-12T01:54:13;26.02;;;13.35;;
56429;SDS011;42332;52.136;20.666;2023-09-12T01:56:39;25.92;;;13.68;;
56429;SDS011;42332;52.136;20.666;2023-09-12T01:59:04;28.40;;;13.65;;
56429;SDS011;42332;52.136;20.666;2023-09-12T02:01:31;21.95;;;13.40;;
56429;SDS011;42332;52.136;20.666;2023-09-12T02:03:56;23.08;;;14.15;;
56429;SDS011;42332;52.136;20.666;2023-09-12T02:06:21;22.95;;;13.20;;
56429;SDS011;42332;52.136;20.666;2023-09-12T02:08:47;23.70;;;13.20;;
56429;SDS011;42332;52.136;20.666;2023-09-12T02:11:12;24.88;;;13.20;;
56429;SDS011;42332;52.136;20.666;2023-09-12T02:13:37;23.90;;;13.30;;
56429;SDS011;42332;52.136;20.666;2023-09-12T02:16:03;24.80;;;13.85;;
56429;SDS011;42332;52.136;20.666;2023-09-12T02:18:28;24.60;;;12.73;;
56429;SDS011;42332;52.136;20.666;2023-09-12T02:20:54;31.55;;;13.63;;
56429;SDS011;42332;52.136;20.666;2023-09-12T02:23:19;22.33;;;13.60;;
56429;SDS011;42332;52.136;20.666;2023-09-12T02:25:44;23.88;;;13.73;;
56429;SDS011;42332;52.136;20.666;2023-09-12T02:28:10;25.38;;;13.75;;
56429;SDS011;42332;52.136;20.666;2023-09-12T02:30:37;22.85;;;12.77;;
56429;SDS011;42332;52.136;20.666;2023-09-12T02:33:05;25.30;;;13.88;;
56429;SDS011;42332;52.136;20.666;2023-09-12T02:35:30;23.58;;;12.88;;
56429;SDS011;42332;52.136;20.666;2023-09-12T02:37:55;26.63;;;13.93;;
56429;SDS011;42332;52.136;20.666;2023-09-12T02:40:21;26.17;;;13.55;;
56429;SDS011;42332;52.136;20.666;2023-09-12T02:42:46;25.08;;;14.27;;
56429;SDS011;42332;52.136;20.666;2023-09-12T02:45:11;31.02;;;14.90;;
56429;SDS011;42332;52.136;20.666;2023-09-12T02:47:37;24.10;;;13.30;;
56429;SDS011;42332;52.136;20.666;2023-09-12T02:50:02;26.35;;;13.90;;
56429;SDS011;42332;52.136;20.666;2023-09-12T02:52:27;26.77;;;14.00;;
56429;SDS011;42332;52.136;20.666;2023-09-12T02:54:53;22.75;;;14.13;;
56429;SDS011;42332;52.136;20.666;2023-09-12T02:57:18;24.52;;;14.23;;
56429;SDS011;42332;52.136;20.666;2023-09-12T02:59:44;26.75;;;13.88;;
56429;SDS011;42332;52.136;20.666;2023-09-12T03:02:09;24.05;;;14.10;;
56429;SDS011;42332;52.136;20.666;2023-09-12T03:04:35;22.83;;;13.75;;
56429;SDS011;42332;52.136;20.666;2023-09-12T03:07:00;25.23;;;13.60;;
56429;SDS011;42332;52.136;20.666;2023-09-12T03:09:25;24.30;;;13.95;;
56429;SDS011;42332;52.136;20.666;2023-09-12T03:11:51;24.95;;;14.18;;
56429;SDS011;42332;52.136;20.666;2023-09-12T03:14:16;27.52;;;14.20;;
56429;SDS011;42332;52.136;20.666;2023-09-12T03:16:41;25.15;;;13.98;;
56429;SDS011;42332;52.136;20.666;2023-09-12T03:19:07;29.33;;;14.25;;
56429;SDS011;42332;52.136;20.666;2023-09-12T03:21:32;26.63;;;14.32;;
56429;SDS011;42332;52.136;20.666;2023-09-12T03:23:57;32.75;;;15.02;;
56429;SDS011;42332;52.136;20.666;2023-09-12T03:26:23;26.50;;;14.27;;
56429;SDS011;42332;52.136;20.666;2023-09-12T03:28:51;27.85;;;15.00;;
56429;SDS011;42332;52.136;20.666;2023-09-12T03:31:16;24.60;;;13.75;;
56429;SDS011;42332;52.136;20.666;2023-09-12T03:33:43;28.85;;;14.85;;
56429;SDS011;42332;52.136;20.666;2023-09-12T03:36:14;29.65;;;15.38;;
56429;SDS011;42332;52.136;20.666;2023-09-12T03:38:40;33.22;;;15.88;;
56429;SDS011;42332;52.136;20.666;2023-09-12T03:41:05;25.15;;;14.38;;
56429;SDS011;42332;52.136;20.666;2023-09-12T03:43:31;23.85;;;13.90;;
56429;SDS011;42332;52.136;20.666;2023-09-12T03:45:58;24.95;;;14.50;;
56429;SDS011;42332;52.136;20.666;2023-09-12T03:48:23;23.75;;;13.90;;
56429;SDS011;42332;52.136;20.666;2023-09-12T03:50:48;24.02;;;13.93;;
56429;SDS011;42332;52.136;20.666;2023-09-12T03:53:14;25.35;;;14.00;;
56429;SDS011;42332;52.136;20.666;2023-09-12T03:55:39;31.88;;;13.45;;
56429;SDS011;42332;52.136;20.666;2023-09-12T03:58:05;25.55;;;13.82;;
56429;SDS011;42332;52.136;20.666;2023-09-12T04:00:30;27.63;;;14.57;;
56429;SDS011;42332;52.136;20.666;2023-09-12T04:02:55;24.02;;;14.68;;
56429;SDS011;42332;52.136;20.666;2023-09-12T04:05:21;29.92;;;14.63;;
56429;SDS011;42332;52.136;20.666;2023-09-12T04:07:46;25.92;;;14.27;;
56429;SDS011;42332;52.136;20.666;2023-09-12T04:10:12;24.27;;;13.88;;
56429;SDS011;42332;52.136;20.666;2023-09-12T04:12:37;28.92;;;13.27;;
56429;SDS011;42332;52.136;20.666;2023-09-12T04:15:03;24.20;;;14.10;;
56429;SDS011;42332;52.136;20.666;2023-09-12T04:17:28;28.75;;;14.70;;
56429;SDS011;42332;52.136;20.666;2023-09-12T04:19:53;21.75;;;13.45;;
56429;SDS011;42332;52.136;20.666;2023-09-12T04:22:19;24.88;;;14.20;;
56429;SDS011;42332;52.136;20.666;2023-09-12T04:24:44;28.92;;;13.75;;
56429;SDS011;42332;52.136;20.666;2023-09-12T04:27:09;26.02;;;14.52;;
56429;SDS011;42332;52.136;20.666;2023-09-12T04:29:35;27.25;;;14.65;;
56429;SDS011;42332;52.136;20.666;2023-09-12T04:32:03;25.30;;;14.25;;
56429;SDS011;42332;52.136;20.666;2023-09-12T04:34:29;25.55;;;13.95;;
56429;SDS011;42332;52.136;20.666;2023-09-12T04:36:55;26.48;;;14.07;;
56429;SDS011;42332;52.136;20.666;2023-09-12T04:39:20;24.85;;;13.65;;
56429;SDS011;42332;52.136;20.666;2023-09-12T04:41:46;24.60;;;14.32;;
56429;SDS011;42332;52.136;20.666;2023-09-12T04:44:11;23.38;;;14.07;;
56429;SDS011;42332;52.136;20.666;2023-09-12T04:46:37;22.10;;;13.65;;
56429;SDS011;42332;52.136;20.666;2023-09-12T04:49:02;23.00;;;13.55;;
56429;SDS011;42332;52.136;20.666;2023-09-12T04:51:28;23.50;;;13.32;;
56429;SDS011;42332;52.136;20.666;2023-09-12T04:53:53;26.95;;;14.52;;
56429;SDS011;42332;52.136;20.666;2023-09-12T04:56:18;24.20;;;14.05;;
56429;SDS011;42332;52.136;20.666;2023-09-12T04:58:44;25.58;;;13.73;;
56429;SDS011;42332;52.136;20.666;2023-09-12T05:01:09;25.95;;;13.93;;
56429;SDS011;42332;52.136;20.666;2023-09-12T05:03:35;26.30;;;14.60;;
56429;SDS011;42332;52.136;20.666;2023-09-12T05:06:00;23.90;;;13.82;;
56429;SDS011;42332;52.136;20.666;2023-09-12T05:08:26;25.88;;;14.98;;
56429;SDS011;42332;52.136;20.666;2023-09-12T05:10:51;25.00;;;13.65;;
56429;SDS011;42332;52.136;20.666;2023-09-12T05:13:17;27.27;;;15.07;;
56429;SDS011;42332;52.136;20.666;2023-09-12T05:15:43;28.00;;;14.55;;
56429;SDS011;42332;52.136;20.666;2023-09-12T05:18:09;23.13;;;14.38;;
56429;SDS011;42332;52.136;20.666;2023-09-12T05:20:35;25.20;;;14.07;;
56429;SDS011;42332;52.136;20.666;2023-09-12T05:23:01;27.42;;;15.20;;
56429;SDS011;42332;52.136;20.666;2023-09-12T05:25:26;26.13;;;14.73;;
56429;SDS011;42332;52.136;20.666;2023-09-12T05:27:52;31.25;;;16.25;;
56429;SDS011;42332;52.136;20.666;2023-09-12T05:30:17;29.35;;;15.70;;
56429;SDS011;42332;52.136;20.666;2023-09-12T05:32:43;28.83;;;15.80;;
56429;SDS011;42332;52.136;20.666;2023-09-12T05:35:08;29.83;;;15.77;;
56429;SDS011;42332;52.136;20.666;2023-09-12T05:37:34;26.30;;;16.05;;
56429;SDS011;42332;52.136;20.666;2023-09-12T05:39:59;28.38;;;16.63;;
56429;SDS011;42332;52.136;20.666;2023-09-12T05:42:24;31.38;;;15.50;;
56429;SDS011;42332;52.136;20.666;2023-09-12T05:44:50;30.58;;;15.93;;
56429;SDS011;42332;52.136;20.666;2023-09-12T05:47:18;26.83;;;15.48;;
56429;SDS011;42332;52.136;20.666;2023-09-12T05:49:44;28.90;;;16.48;;
56429;SDS011;42332;52.136;20.666;2023-09-12T05:52:09;24.83;;;15.27;;
56429;SDS011;42332;52.136;20.666;2023-09-12T05:54:36;29.95;;;16.50;;
56429;SDS011;42332;52.136;20.666;2023-09-12T05:57:01;34.63;;;16.00;;
56429;SDS011;42332;52.136;20.666;2023-09-12T05:59:26;26.10;;;15.20;;
56429;SDS011;42332;52.136;20.666;2023-09-12T06:01:52;32.67;;;16.35;;
56429;SDS011;42332;52.136;20.666;2023-09-12T06:04:17;28.45;;;14.68;;
56429;SDS011;42332;52.136;20.666;2023-09-12T06:06:42;31.98;;;16.45;;
56429;SDS011;42332;52.136;20.666;2023-09-12T06:09:08;38.72;;;15.73;;
56429;SDS011;42332;52.136;20.666;2023-09-12T06:11:34;29.83;;;16.10;;
56429;SDS011;42332;52.136;20.666;2023-09-12T06:13:59;24.20;;;14.73;;
56429;SDS011;42332;52.136;20.666;2023-09-12T06:16:24;26.88;;;15.48;;
56429;SDS011;42332;52.136;20.666;2023-09-12T06:18:50;31.42;;;15.55;;
56429;SDS011;42332;52.136;20.666;2023-09-12T06:21:16;28.20;;;14.82;;
56429;SDS011;42332;52.136;20.666;2023-09-12T06:23:42;22.75;;;14.73;;
56429;SDS011;42332;52.136;20.666;2023-09-12T06:26:07;32.88;;;15.07;;
56429;SDS011;42332;52.136;20.666;2023-09-12T06:28:32;36.90;;;19.77;;
56429;SDS011;42332;52.136;20.666;2023-09-12T06:30:58;44.33;;;21.65;;
56429;SDS011;42332;52.136;20.666;2023-09-12T06:33:24;38.55;;;20.98;;
56429;SDS011;42332;52.136;20.666;2023-09-12T06:35:50;39.33;;;19.50;;
56429;SDS011;42332;52.136;20.666;2023-09-12T06:38:17;33.25;;;18.52;;
56429;SDS011;42332;52.136;20.666;2023-09-12T06:40:43;29.80;;;16.45;;
56429;SDS011;42332;52.136;20.666;2023-09-12T06:43:08;26.38;;;15.50;;
56429;SDS011;42332;52.136;20.666;2023-09-12T06:45:34;28.05;;;15.13;;
56429;SDS011;42332;52.136;20.666;2023-09-12T06:48:02;26.83;;;15.05;;
56429;SDS011;42332;52.136;20.666;2023-09-12T06:50:28;25.90;;;15.48;;
56429;SDS011;42332;52.136;20.666;2023-09-12T06:52:53;31.92;;;13.98;;
56429;SDS011;42332;52.136;20.666;2023-09-12T06:55:19;25.42;;;14.52;;
56429;SDS011;42332;52.136;20.666;2023-09-12T06:57:44;27.58;;;14.05;;
56429;SDS011;42332;52.136;20.666;2023-09-12T07:00:11;27.88;;;14.63;;
56429;SDS011;42332;52.136;20.666;2023-09-12T07:02:37;23.95;;;13.57;;
56429;SDS011;42332;52.136;20.666;2023-09-12T07:05:02;24.20;;;14.23;;
56429;SDS011;42332;52.136;20.666;2023-09-12T07:07:28;23.02;;;14.32;;
56429;SDS011;42332;52.136;20.666;2023-09-12T07:09:54;26.63;;;14.05;;
56429;SDS011;42332;52.136;20.666;2023-09-12T07:12:19;23.65;;;14.00;;
56429;SDS011;42332;52.136;20.666;2023-09-12T07:14:45;24.75;;;13.35;;
56429;SDS011;42332;52.136;20.666;2023-09-12T07:17:10;25.73;;;13.77;;
56429;SDS011;42332;52.136;20.666;2023-09-12T07:19:35;27.00;;;13.57;;
56429;SDS011;42332;52.136;20.666;2023-09-12T07:22:01;23.55;;;14.18;;
56429;SDS011;42332;52.136;20.666;2023-09-12T07:24:26;23.10;;;12.82;;
56429;SDS011;42332;52.136;20.666;2023-09-12T07:26:52;27.10;;;13.85;;
56429;SDS011;42332;52.136;20.666;2023-09-12T07:29:17;25.17;;;12.82;;
56429;SDS011;42332;52.136;20.666;2023-09-12T07:31:42;22.15;;;12.75;;
56429;SDS011;42332;52.136;20.666;2023-09-12T07:34:08;23.17;;;12.75;;
56429;SDS011;42332;52.136;20.666;2023-09-12T07:36:34;21.73;;;12.70;;
56429;SDS011;42332;52.136;20.666;2023-09-12T07:38:59;18.08;;;10.80;;
56429;SDS011;42332;52.136;20.666;2023-09-12T07:41:25;23.13;;;11.90;;
56429;SDS011;42332;52.136;20.666;2023-09-12T07:43:50;20.23;;;11.45;;
56429;SDS011;42332;52.136;20.666;2023-09-12T07:46:16;28.60;;;11.95;;
56429;SDS011;42332;52.136;20.666;2023-09-12T07:48:41;19.33;;;11.15;;
56429;SDS011;42332;52.136;20.666;2023-09-12T07:51:15;17.48;;;11.38;;
56429;SDS011;42332;52.136;20.666;2023-09-12T07:53:42;25.27;;;11.90;;
56429;SDS011;42332;52.136;20.666;2023-09-12T07:56:08;20.95;;;12.32;;
56429;SDS011;42332;52.136;20.666;2023-09-12T07:58:35;19.45;;;10.95;;
56429;SDS011;42332;52.136;20.666;2023-09-12T08:01:04;17.83;;;9.35;;
56429;SDS011;42332;52.136;20.666;2023-09-12T08:03:30;19.00;;;10.20;;
56429;SDS011;42332;52.136;20.666;2023-09-12T08:05:56;21.98;;;11.73;;
56429;SDS011;42332;52.136;20.666;2023-09-12T08:08:22;14.60;;;9.93;;
56429;SDS011;42332;52.136;20.666;2023-09-12T08:10:48;17.73;;;11.00;;
56429;SDS011;42332;52.136;20.666;2023-09-12T08:13:13;15.60;;;9.80;;
56429;SDS011;42332;52.136;20.666;2023-09-12T08:15:38;19.60;;;10.93;;
56429;SDS011;42332;52.136;20.666;2023-09-12T08:18:04;22.95;;;10.80;;
56429;SDS011;42332;52.136;20.666;2023-09-12T08:20:29;18.30;;;9.90;;
56429;SDS011;42332;52.136;20.666;2023-09-12T08:22:54;18.98;;;10.05;;
56429;SDS011;42332;52.136;20.666;2023-09-12T08:25:20;18.08;;;9.55;;
56429;SDS011;42332;52.136;20.666;2023-09-12T08:27:45;17.02;;;9.77;;
56429;SDS011;42332;52.136;20.666;2023-09-12T08:30:11;18.67;;;9.30;;
56429;SDS011;42332;52.136;20.666;2023-09-12T08:32:37;17.40;;;9.43;;
56429;SDS011;42332;52.136;20.666;2023-09-12T08:35:05;19.52;;;9.80;;
56429;SDS011;42332;52.136;20.666;2023-09-12T08:37:31;15.45;;;9.20;;
56429;SDS011;42332;52.136;20.666;2023-09-12T08:39:56;17.52;;;9.45;;
56429;SDS011;42332;52.136;20.666;2023-09-12T08:42:24;17.20;;;10.05;;
56429;SDS011;42332;52.136;20.666;2023-09-12T08:44:52;17.23;;;9.25;;
56429;SDS011;42332;52.136;20.666;2023-09-12T08:47:17;18.48;;;8.75;;
56429;SDS011;42332;52.136;20.666;2023-09-12T08:49:44;15.50;;;9.63;;
56429;SDS011;42332;52.136;20.666;2023-09-12T08:52:10;17.50;;;8.95;;
56429;SDS011;42332;52.136;20.666;2023-09-12T08:54:35;15.75;;;9.18;;
56429;SDS011;42332;52.136;20.666;2023-09-12T08:57:04;16.50;;;9.70;;
56429;SDS011;42332;52.136;20.666;2023-09-12T08:59:33;16.85;;;9.15;;
56429;SDS011;42332;52.136;20.666;2023-09-12T09:01:59;14.95;;;8.98;;
56429;SDS011;42332;52.136;20.666;2023-09-12T09:04:26;16.02;;;8.98;;
56429;SDS011;42332;52.136;20.666;2023-09-12T09:06:54;13.77;;;9.75;;
56429;SDS011;42332;52.136;20.666;2023-09-12T09:09:21;17.85;;;9.43;;
56429;SDS011;42332;52.136;20.666;2023-09-12T09:11:47;16.55;;;9.10;;
56429;SDS011;42332;52.136;20.666;2023-09-12T09:14:13;19.35;;;9.52;;
56429;SDS011;42332;52.136;20.666;2023-09-12T09:16:38;14.68;;;9.02;;
56429;SDS011;42332;52.136;20.666;2023-09-12T09:19:04;15.68;;;8.70;;
56429;SDS011;42332;52.136;20.666;2023-09-12T09:21:34;20.42;;;9.50;;
56429;SDS011;42332;52.136;20.666;2023-09-12T09:24:07;15.02;;;8.52;;
56429;SDS011;42332;52.136;20.666;2023-09-12T09:29:28;13.88;;;8.02;;
56429;SDS011;42332;52.136;20.666;2023-09-12T09:31:57;14.40;;;8.90;;
56429;SDS011;42332;52.136;20.666;2023-09-12T09:34:23;13.68;;;8.23;;
56429;SDS011;42332;52.136;20.666;2023-09-12T09:36:52;16.48;;;8.82;;
56429;SDS011;42332;52.136;20.666;2023-09-12T09:39:19;17.08;;;9.20;;
56429;SDS011;42332;52.136;20.666;2023-09-12T09:41:49;14.13;;;8.13;;
56429;SDS011;42332;52.136;20.666;2023-09-12T09:44:15;16.08;;;8.07;;
56429;SDS011;42332;52.136;20.666;2023-09-12T09:46:44;15.55;;;8.05;;
56429;SDS011;42332;52.136;20.666;2023-09-12T09:49:10;16.98;;;7.93;;
56429;SDS011;42332;52.136;20.666;2023-09-12T09:51:43;15.15;;;8.32;;
56429;SDS011;42332;52.136;20.666;2023-09-12T09:54:09;19.20;;;8.15;;
56429;SDS011;42332;52.136;20.666;2023-09-12T09:56:48;16.83;;;8.27;;
56429;SDS011;42332;52.136;20.666;2023-09-12T09:59:15;14.15;;;8.02;;
56429;SDS011;42332;52.136;20.666;2023-09-12T10:01:41;15.35;;;7.68;;
56429;SDS011;42332;52.136;20.666;2023-09-12T10:04:08;12.25;;;7.13;;
56429;SDS011;42332;52.136;20.666;2023-09-12T10:06:35;15.73;;;7.68;;
56429;SDS011;42332;52.136;20.666;2023-09-12T10:09:01;12.75;;;7.50;;
56429;SDS011;42332;52.136;20.666;2023-09-12T10:11:31;17.48;;;7.28;;
56429;SDS011;42332;52.136;20.666;2023-09-12T10:13:59;22.60;;;7.80;;
56429;SDS011;42332;52.136;20.666;2023-09-12T10:16:30;14.38;;;6.95;;
56429;SDS011;42332;52.136;20.666;2023-09-12T10:21:58;15.85;;;7.88;;
56429;SDS011;42332;52.136;20.666;2023-09-12T10:24:45;17.15;;;8.00;;
56429;SDS011;42332;52.136;20.666;2023-09-12T10:27:11;14.57;;;7.82;;
56429;SDS011;42332;52.136;20.666;2023-09-12T10:29:37;15.20;;;8.13;;
56429;SDS011;42332;52.136;20.666;2023-09-12T10:32:03;12.15;;;7.00;;
56429;SDS011;42332;52.136;20.666;2023-09-12T10:34:30;18.27;;;7.70;;
56429;SDS011;42332;52.136;20.666;2023-09-12T10:36:55;14.43;;;7.13;;
56429;SDS011;42332;52.136;20.666;2023-09-12T10:39:23;14.05;;;7.38;;
56429;SDS011;42332;52.136;20.666;2023-09-12T10:41:50;14.68;;;7.97;;
56429;SDS011;42332;52.136;20.666;2023-09-12T10:44:17;18.60;;;8.05;;
56429;SDS011;42332;52.136;20.666;2023-09-12T10:46:43;14.18;;;7.60;;
56429;SDS011;42332;52.136;20.666;2023-09-12T10:49:10;13.88;;;7.70;;
56429;SDS011;42332;52.136;20.666;2023-09-12T10:51:40;17.92;;;7.75;;
56429;SDS011;42332;52.136;20.666;2023-09-12T10:54:12;12.48;;;6.93;;
56429;SDS011;42332;52.136;20.666;2023-09-12T10:56:38;15.68;;;7.38;;
56429;SDS011;42332;52.136;20.666;2023-09-12T11:01:33;12.75;;;7.68;;
56429;SDS011;42332;52.136;20.666;2023-09-12T11:04:29;12.38;;;7.35;;
56429;SDS011;42332;52.136;20.666;2023-09-12T11:06:44;12.18;;;7.20;;
56429;SDS011;42332;52.136;20.666;2023-09-12T11:11:39;15.40;;;7.30;;
56429;SDS011;42332;52.136;20.666;2023-09-12T11:14:05;13.60;;;7.25;;
56429;SDS011;42332;52.136;20.666;2023-09-12T11:16:31;13.20;;;7.82;;
56429;SDS011;42332;52.136;20.666;2023-09-12T11:19:13;11.80;;;7.15;;
56429;SDS011;42332;52.136;20.666;2023-09-12T11:21:51;11.18;;;6.60;;
56429;SDS011;42332;52.136;20.666;2023-09-12T11:24:19;12.13;;;7.03;;
56429;SDS011;42332;52.136;20.666;2023-09-12T11:29:29;17.67;;;7.32;;
56429;SDS011;42332;52.136;20.666;2023-09-12T11:31:55;15.30;;;7.10;;
56429;SDS011;42332;52.136;20.666;2023-09-12T11:34:27;15.00;;;7.00;;
56429;SDS011;42332;52.136;20.666;2023-09-12T11:36:57;13.88;;;7.20;;
56429;SDS011;42332;52.136;20.666;2023-09-12T11:39:25;12.80;;;7.07;;
56429;SDS011;42332;52.136;20.666;2023-09-12T11:42:01;13.20;;;7.28;;
56429;SDS011;42332;52.136;20.666;2023-09-12T11:44:28;12.07;;;7.75;;
56429;SDS011;42332;52.136;20.666;2023-09-12T11:46:55;18.73;;;6.80;;
56429;SDS011;42332;52.136;20.666;2023-09-12T11:49:23;12.63;;;7.32;;
56429;SDS011;42332;52.136;20.666;2023-09-12T11:51:52;11.45;;;7.03;;
56429;SDS011;42332;52.136;20.666;2023-09-12T11:54:19;14.40;;;7.45;;
56429;SDS011;42332;52.136;20.666;2023-09-12T11:56:48;10.82;;;6.60;;
56429;SDS011;42332;52.136;20.666;2023-09-12T11:59:22;10.85;;;6.65;;
56429;SDS011;42332;52.136;20.666;2023-09-12T12:01:48;17.42;;;7.65;;
56429;SDS011;42332;52.136;20.666;2023-09-12T12:04:13;14.80;;;6.68;;
56429;SDS011;42332;52.136;20.666;2023-09-12T12:06:39;11.68;;;7.15;;
56429;SDS011;42332;52.136;20.666;2023-09-12T12:09:05;13.80;;;7.32;;
56429;SDS011;42332;52.136;20.666;2023-09-12T12:11:31;15.98;;;7.57;;
56429;SDS011;42332;52.136;20.666;2023-09-12T12:13:57;12.80;;;7.28;;
56429;SDS011;42332;52.136;20.666;2023-09-12T12:16:24;12.73;;;7.10;;
56429;SDS011;42332;52.136;20.666;2023-09-12T12:18:50;19.27;;;7.50;;
56429;SDS011;42332;52.136;20.666;2023-09-12T12:21:19;12.45;;;6.72;;
56429;SDS011;42332;52.136;20.666;2023-09-12T12:23:44;16.35;;;7.43;;
56429;SDS011;42332;52.136;20.666;2023-09-12T12:26:10;11.07;;;6.30;;
56429;SDS011;42332;52.136;20.666;2023-09-12T12:28:35;12.93;;;6.97;;
56429;SDS011;42332;52.136;20.666;2023-09-12T12:31:01;10.80;;;6.72;;
56429;SDS011;42332;52.136;20.666;2023-09-12T12:33:26;19.00;;;7.60;;
56429;SDS011;42332;52.136;20.666;2023-09-12T12:36:04;11.63;;;6.93;;
56429;SDS011;42332;52.136;20.666;2023-09-12T12:38:34;21.17;;;7.60;;
56429;SDS011;42332;52.136;20.666;2023-09-12T12:41:02;13.95;;;6.97;;
56429;SDS011;42332;52.136;20.666;2023-09-12T12:43:27;14.70;;;7.30;;
56429;SDS011;42332;52.136;20.666;2023-09-12T12:45:56;15.02;;;7.70;;
56429;SDS011;42332;52.136;20.666;2023-09-12T12:48:33;13.60;;;7.25;;
56429;SDS011;42332;52.136;20.666;2023-09-12T12:50:59;16.17;;;7.75;;
56429;SDS011;42332;52.136;20.666;2023-09-12T12:53:37;12.93;;;6.95;;
56429;SDS011;42332;52.136;20.666;2023-09-12T12:56:03;16.20;;;7.80;;
56429;SDS011;42332;52.136;20.666;2023-09-12T12:58:28;15.15;;;7.30;;
56429;SDS011;42332;52.136;20.666;2023-09-12T13:00:54;14.52;;;7.25;;
56429;SDS011;42332;52.136;20.666;2023-09-12T13:03:19;14.80;;;7.35;;
56429;SDS011;42332;52.136;20.666;2023-09-12T13:05:44;13.05;;;7.20;;
56429;SDS011;42332;52.136;20.666;2023-09-12T13:08:10;19.33;;;7.43;;
56429;SDS011;42332;52.136;20.666;2023-09-12T13:10:35;18.42;;;7.40;;
56429;SDS011;42332;52.136;20.666;2023-09-12T13:13:02;13.48;;;7.07;;
56429;SDS011;42332;52.136;20.666;2023-09-12T13:15:28;12.50;;;7.07;;
56429;SDS011;42332;52.136;20.666;2023-09-12T13:17:54;17.08;;;7.15;;
56429;SDS011;42332;52.136;20.666;2023-09-12T13:20:19;17.55;;;6.97;;
56429;SDS011;42332;52.136;20.666;2023-09-12T13:22:44;13.48;;;7.57;;
56429;SDS011;42332;52.136;20.666;2023-09-12T13:25:10;19.33;;;7.63;;
56429;SDS011;42332;52.136;20.666;2023-09-12T13:27:35;19.70;;;9.23;;
56429;SDS011;42332;52.136;20.666;2023-09-12T13:30:01;25.00;;;8.43;;
56429;SDS011;42332;52.136;20.666;2023-09-12T13:32:28;13.70;;;7.85;;
56429;SDS011;42332;52.136;20.666;2023-09-12T13:34:53;12.57;;;7.03;;
56429;SDS011;42332;52.136;20.666;2023-09-12T13:37:19;17.75;;;7.90;;
56429;SDS011;42332;52.136;20.666;2023-09-12T13:39:46;19.58;;;7.38;;
56429;SDS011;42332;52.136;20.666;2023-09-12T13:42:17;17.05;;;7.32;;
56429;SDS011;42332;52.136;20.666;2023-09-12T13:44:49;16.67;;;7.38;;
56429;SDS011;42332;52.136;20.666;2023-09-12T13:47:14;13.20;;;7.30;;
56429;SDS011;42332;52.136;20.666;2023-09-12T13:49:46;15.15;;;8.05;;
56429;SDS011;42332;52.136;20.666;2023-09-12T13:52:12;14.52;;;7.22;;
56429;SDS011;42332;52.136;20.666;2023-09-12T13:54:37;21.30;;;8.30;;
56429;SDS011;42332;52.136;20.666;2023-09-12T13:57:03;13.05;;;7.82;;
56429;SDS011;42332;52.136;20.666;2023-09-12T13:59:28;12.48;;;6.80;;
56429;SDS011;42332;52.136;20.666;2023-09-12T14:01:53;12.60;;;7.22;;
56429;SDS011;42332;52.136;20.666;2023-09-12T14:04:19;12.48;;;7.43;;
56429;SDS011;42332;52.136;20.666;2023-09-12T14:06:45;15.88;;;7.50;;
56429;SDS011;42332;52.136;20.666;2023-09-12T14:09:13;10.82;;;6.68;;
56429;SDS011;42332;52.136;20.666;2023-09-12T14:11:38;15.77;;;7.22;;
56429;SDS011;42332;52.136;20.666;2023-09-12T14:14:05;19.02;;;7.53;;
56429;SDS011;42332;52.136;20.666;2023-09-12T14:16:30;11.45;;;6.72;;
56429;SDS011;42332;52.136;20.666;2023-09-12T14:18:56;13.65;;;7.22;;
56429;SDS011;42332;52.136;20.666;2023-09-12T14:21:21;12.80;;;6.95;;
56429;SDS011;42332;52.136;20.666;2023-09-12T14:23:46;15.70;;;7.50;;
56429;SDS011;42332;52.136;20.666;2023-09-12T14:26:12;12.18;;;6.93;;
56429;SDS011;42332;52.136;20.666;2023-09-12T14:28:37;13.32;;;7.65;;